Map

Track Data

SID SEASON NUMBER BASIN SUBBASIN NAME ISO_TIME NATURE LAT LON WMO_WIND WMO_PRES WMO_AGENCY TRACK_TYPE DIST2LAND LANDFALL IFLAG USA_AGENCY USA_ATCF_ID USA_LAT USA_LON USA_RECORD USA_STATUS USA_WIND USA_PRES USA_SSHS USA_R34_NE USA_R34_SE USA_R34_SW USA_R34_NW USA_R50_NE USA_R50_SE USA_R50_SW USA_R50_NW USA_R64_NE USA_R64_SE USA_R64_SW USA_R64_NW USA_POCI USA_ROCI USA_RMW USA_EYE TOKYO_LAT TOKYO_LON TOKYO_GRADE TOKYO_WIND TOKYO_PRES TOKYO_R50_DIR TOKYO_R50_LONG TOKYO_R50_SHORT TOKYO_R30_DIR TOKYO_R30_LONG TOKYO_R30_SHORT TOKYO_LAND CMA_LAT CMA_LON CMA_CAT CMA_WIND CMA_PRES HKO_LAT HKO_LON HKO_CAT HKO_WIND HKO_PRES NEWDELHI_LAT NEWDELHI_LON NEWDELHI_GRADE NEWDELHI_WIND NEWDELHI_PRES NEWDELHI_CI NEWDELHI_DP NEWDELHI_POCI REUNION_LAT REUNION_LON REUNION_TYPE REUNION_WIND REUNION_PRES REUNION_TNUM REUNION_CI REUNION_RMW REUNION_R34_NE REUNION_R34_SE REUNION_R34_SW REUNION_R34_NW REUNION_R50_NE REUNION_R50_SE REUNION_R50_SW REUNION_R50_NW REUNION_R64_NE REUNION_R64_SE REUNION_R64_SW REUNION_R64_NW BOM_LAT BOM_LON BOM_TYPE BOM_WIND BOM_PRES BOM_TNUM BOM_CI BOM_RMW BOM_R34_NE BOM_R34_SE BOM_R34_SW BOM_R34_NW BOM_R50_NE BOM_R50_SE BOM_R50_SW BOM_R50_NW BOM_R64_NE BOM_R64_SE BOM_R64_SW BOM_R64_NW BOM_ROCI BOM_POCI BOM_EYE BOM_POS_METHOD BOM_PRES_METHOD NADI_LAT NADI_LON NADI_CAT NADI_WIND NADI_PRES WELLINGTON_LAT WELLINGTON_LON WELLINGTON_WIND WELLINGTON_PRES DS824_LAT DS824_LON DS824_STAGE DS824_WIND DS824_PRES TD9636_LAT TD9636_LON TD9636_STAGE TD9636_WIND TD9636_PRES TD9635_LAT TD9635_LON TD9635_WIND TD9635_PRES TD9635_ROCI NEUMANN_LAT NEUMANN_LON NEUMANN_CLASS NEUMANN_WIND NEUMANN_PRES MLC_LAT MLC_LON MLC_CLASS MLC_WIND MLC_PRES USA_GUST BOM_GUST BOM_GUST_PER REUNION_GUST REUNION_GUST_PER USA_SEAHGT USA_SEARAD_NE USA_SEARAD_SE USA_SEARAD_SW USA_SEARAD_NW STORM_SPEED STORM_DIR
1935108S27046 1935 24 SI MM NOT_NAMED 1935-04-18 09:00:00 NR -26.8873 45.8174 spur-other 148 148 ______________ -1 12 121
1935108S27046 1935 24 SI MM NOT_NAMED 1935-04-18 12:00:00 NR -27.1900 46.3877 spur-other 199 199 ______________ -1 12 120
1935108S27046 1935 24 SI MM NOT_NAMED 1935-04-18 15:00:00 NR -27.5041 47.0104 spur-other 257 257 ______________ -1 13 119
1935108S27046 1935 24 SI MM NOT_NAMED 1935-04-18 18:00:00 NR -27.8255 47.6853 spur-other 303 303 ______________ -1 14 118
1935108S27046 1935 24 SI MM NOT_NAMED 1935-04-18 21:00:00 NR -28.1499 48.4120 spur-other 360 360 ______________ -1 15 116
1935108S27046 1935 24 SI MM NOT_NAMED 1935-04-19 00:00:00 NR -28.4732 49.1902 spur-other 437 437 ______________ -1 16 114
1935108S27046 1935 24 SI MM NOT_NAMED 1935-04-19 03:00:00 NR -28.7913 50.0197 spur-other 508 508 ______________ -1 16 113
1935108S27046 1935 24 SI MM NOT_NAMED 1935-04-19 06:00:00 NR -29.1000 50.9000 reunion spur-other 590 590 _____O________ -1 -29.1000 50.9000 99 9.90000 17 108
1935108S27046 1935 24 SI MM NOT_NAMED 1935-04-19 09:00:00 NR -29.3348 51.9146 spur-other 673 673 _____P________ -1 -29.3783 51.9292 99 19 104
1935108S27046 1935 24 SI MM NOT_NAMED 1935-04-19 12:00:00 NR -29.5524 52.9996 spur-other 776 776 _____P________ -1 -29.6491 52.9656 99 20 103
1935108S27046 1935 24 SI MM NOT_NAMED 1935-04-19 15:00:00 NR -29.7623 54.1247 spur-other 873 873 _____P________ -1 -29.9121 54.0086 99 20 102
1935108S27046 1935 24 SI MM NOT_NAMED 1935-04-19 18:00:00 NR -29.9752 55.2596 spur-other 961 960 _____P________ -1 -30.1669 55.0576 99 20 103
1935108S27046 1935 24 SI MM NOT_NAMED 1935-04-19 21:00:00 NR -30.2024 56.3742 spur-other 986 986 _____P________ -1 -30.4134 56.1120 99 19 104
1935108S27046 1935 24 SI MM NOT_NAMED 1935-04-20 00:00:00 NR -30.4565 57.4388 spur-other 1032 1032 _____P________ -1 -30.6512 57.1709 99 18 107
1935108S27046 1935 24 SI MM NOT_NAMED 1935-04-20 03:00:00 NR -30.7510 58.4239 spur-other 1086 1086 _____P________ -1 -30.8801 58.2339 99 17 112
1935108S27046 1935 24 SI MM NOT_NAMED 1935-04-20 06:00:00 NR -31.1000 59.3000 reunion spur-other 1144 1144 _____O________ -1 -31.1000 59.3000 99 9.90000 16 119
1935108S27046 1935 24 SI MM NOT_NAMED 1935-04-20 09:00:00 NR -31.5149 60.0459 spur-other 1209 1209 _____P________ -1 -31.6800 59.7295 99 15 127
1935108S27046 1935 24 SI MM NOT_NAMED 1935-04-20 12:00:00 NR -31.9921 60.6718 spur-other 1286 1286 _____P________ -1 -32.2591 60.1647 99 14 136
1935108S27046 1935 24 SI MM NOT_NAMED 1935-04-20 15:00:00 NR -32.5241 61.1958 spur-other 1357 1357 _____P________ -1 -32.8369 60.6057 99 14 144
1935108S27046 1935 24 SI MM NOT_NAMED 1935-04-20 18:00:00 NR -33.1026 61.6354 spur-other 1433 1433 _____P________ -1 -33.4133 61.0525 99 14 150
1935108S27046 1935 24 SI MM NOT_NAMED 1935-04-20 21:00:00 NR -33.7188 62.0080 spur-other 1510 1510 _____P________ -1 -33.9880 61.5053 99 14 155
1935108S27046 1935 24 SI MM NOT_NAMED 1935-04-21 00:00:00 NR -34.3635 62.3311 spur-other 1592 1592 _____P________ -1 -34.5608 61.9642 99 14 159
1935108S27046 1935 24 SI MM NOT_NAMED 1935-04-21 03:00:00 NR -35.0272 62.6225 spur-other 1619 1536 _____P________ -1 -35.1316 62.4290 99 14 161
1935108S27046 1935 24 SI MM NOT_NAMED 1935-04-21 06:00:00 NR -35.7000 62.9000 reunion spur-other 1536 _____O________ -1 -35.7000 62.9000 99 9.90000 14 162

About IBTrACS Database

This database is a web-friendly format of International Best Track Archive for Climate Stewardship (IBTrACS), a global best track data archive curated by NOAA dating back to 1842.

Updated: 2021-11-26